Saturday, July 21, 2018, 9:03 PM EDT
Back to Local

KBTV, Burlington International

Location: South Burlington, VT, United States Lat: 44.467
Local Time: 9:03 PM EDT ( 1:03 GMT) Lon: -73.15
Time Zone: US/Eastern Elev: 334 ft

Show me the last for .
Show Decoded

2018-07-21 19:54 METAR KBTV 212354Z 15009KT 10SM SCT100 BKN150 BKN250 27/10 A3004 RMK AO2 SLP169
                 T02720100 10317 20272 53004 =
2018-07-21 18:54 METAR KBTV 212254Z 10011KT 10SM FEW090 BKN200 29/10 A3002 RMK AO2 SLP163
                 T02940100 =
2018-07-21 17:54 METAR KBTV 212154Z 10010KT 10SM FEW100 FEW150 SCT200 31/07 A3002 RMK AO2 SLP163
                 T03110067 =
2018-07-21 16:54 METAR KBTV 212054Z 10010G14KT 10SM FEW100 SCT150 SCT200 31/11 A3002 RMK AO2
                 SLP165 T03110106 56014 =
2018-07-21 15:54 METAR KBTV 211954Z 13006KT 10SM FEW100 SCT150 SCT200 31/11 A3004 RMK AO2 SLP169
                 T03110111 =
2018-07-21 14:54 METAR KBTV 211854Z VRB06KT 10SM FEW060 BKN100 BKN150 31/12 A3005 RMK AO2 SLP172
                 T03060117 =
2018-07-21 13:54 METAR KBTV 211754Z 31003KT 10SM FEW060 BKN100 BKN150 28/14 A3007 RMK AO2 SLP180
                 T02830139 10294 20233 56016 =
2018-07-21 12:54 METAR KBTV 211654Z 34008KT 10SM FEW060 BKN150 28/14 A3008 RMK AO2 SLP184
                 T02780139 =
2018-07-21 11:54 METAR KBTV 211554Z VRB04KT 10SM FEW060 SCT100 BKN150 29/13 A3010 RMK AO2 SLP189
                 T02890128 =
2018-07-21 10:54 METAR KBTV 211454Z 14005KT 10SM FEW060 SCT100 SCT150 27/12 A3011 RMK AO2 SLP195
                 T02720122 56004 =
2018-07-21 09:54 METAR KBTV 211354Z 17007KT 10SM FEW060 SCT150 26/12 A3011 RMK AO2 SLP195
                 T02610122 =
2018-07-21 08:54 METAR KBTV 211254Z 17009KT 10SM FEW150 24/12 A3012 RMK AO2 SLP197 T02440122 =
2018-07-21 07:54 METAR KBTV 211154Z 12004KT 10SM FEW150 23/14 A3012 RMK AO2 SLP199 T02330139
                 10233 20183 51007 =
2018-07-21 06:54 METAR KBTV 211054Z 10004KT 10SM FEW200 21/13 A3012 RMK AO2 SLP198 T02110133 =
2018-07-21 05:54 METAR KBTV 210954Z 17006KT 10SM FEW200 21/13 A3012 RMK AO2 SLP197 T02060128 =
2018-07-21 04:54 METAR KBTV 210854Z 15006KT 10SM CLR 20/13 A3010 RMK AO2 SLP191 T02000128 53008 =
2018-07-21 03:54 METAR KBTV 210754Z 12004KT 10SM CLR 19/13 A3009 RMK AO2 SLP186 T01890128 =
2018-07-21 02:54 METAR KBTV 210654Z 17005KT 10SM CLR 21/12 A3008 RMK AO2 SLP185 T02060122 =
2018-07-21 01:54 METAR KBTV 210554Z 17004KT 10SM CLR 19/13 A3008 RMK AO2 SLP183 T01940128 10294
                 20194 57000 =
2018-07-21 00:54 METAR KBTV 210454Z 13005KT 10SM CLR 21/13 A3008 RMK AO2 SLP183 T02110128
                 403280150 =
2018-07-20 23:54 METAR KBTV 210354Z 13004KT 10SM CLR 22/13 A3008 RMK AO2 SLP183 "LAST" T02220133
                 =
2018-07-20 22:54 METAR KBTV 210254Z 15005KT 10SM CLR 23/13 A3008 RMK AO2 SLP183 T02330128 51009 =
2018-07-20 21:54 METAR KBTV 210154Z 00000KT 10SM CLR 24/12 A3007 RMK AO2 SLP180 T02440122 =

Support USWX by starting your Amazon purchase here.